createdAt,value
2019-02-19T00:01:31.346Z,3.84
2019-02-19T00:04:02.544Z,3.85
2019-02-19T00:06:34.159Z,3.68
2019-02-19T00:09:07.161Z,3.73
2019-02-19T00:11:38.504Z,3.63
2019-02-19T00:14:10.024Z,3.65
2019-02-19T00:16:41.464Z,3.74
2019-02-19T00:19:12.744Z,3.79
2019-02-19T00:21:44.579Z,3.84
2019-02-19T00:24:16.182Z,3.89
2019-02-19T00:26:47.847Z,3.94
2019-02-19T00:29:19.454Z,3.99
2019-02-19T00:31:51.814Z,3.99
2019-02-19T00:34:23.158Z,3.80
2019-02-19T00:36:54.445Z,3.61
2019-02-19T00:39:26.086Z,3.67
2019-02-19T00:41:57.732Z,3.65
2019-02-19T00:44:29.325Z,3.65
2019-02-19T00:47:01.014Z,3.62
2019-02-19T00:49:32.612Z,3.61
2019-02-19T00:52:04.147Z,3.64
2019-02-19T00:54:35.624Z,3.68
2019-02-19T00:57:07.259Z,3.71
2019-02-19T00:59:38.954Z,3.55
2019-02-19T01:02:10.300Z,3.47
2019-02-19T01:04:41.815Z,3.39
2019-02-19T01:07:13.494Z,3.24
2019-02-19T01:09:44.940Z,3.11
2019-02-19T01:12:16.189Z,3.02
2019-02-19T01:14:47.868Z,3.02
2019-02-19T01:17:19.316Z,2.97
2019-02-19T01:19:51.050Z,2.89
2019-02-19T01:22:22.462Z,2.96
2019-02-19T01:24:54.105Z,2.99
2019-02-19T01:27:25.848Z,2.98
2019-02-19T01:29:57.307Z,2.99
2019-02-19T01:32:28.998Z,3.05
2019-02-19T01:35:00.538Z,2.97
2019-02-19T01:37:32.018Z,2.98
2019-02-19T01:40:03.687Z,2.95
2019-02-19T01:42:36.240Z,2.85
2019-02-19T01:45:09.024Z,2.70
2019-02-19T01:47:40.583Z,2.65
2019-02-19T01:50:12.394Z,2.67
2019-02-19T01:52:43.898Z,2.62
2019-02-19T01:55:15.490Z,2.63
2019-02-19T01:57:47.067Z,2.61
2019-02-19T02:00:18.628Z,2.65
2019-02-19T02:02:50.212Z,2.67
2019-02-19T02:05:21.788Z,2.66
2019-02-19T02:07:53.281Z,2.63
2019-02-19T02:10:24.888Z,2.59
2019-02-19T02:12:56.426Z,2.69
2019-02-19T02:15:27.893Z,2.78
2019-02-19T02:17:59.356Z,2.85
2019-02-19T02:20:31.933Z,2.88
2019-02-19T02:23:03.571Z,2.85
2019-02-19T02:25:35.130Z,2.82
2019-02-19T02:28:07.069Z,2.87
2019-02-19T02:30:38.638Z,2.75
2019-02-19T02:33:10.225Z,2.73
2019-02-19T02:35:41.597Z,2.65
2019-02-19T02:38:12.902Z,2.70
2019-02-19T02:40:44.144Z,2.69
2019-02-19T02:43:15.557Z,2.60
2019-02-19T02:45:53.510Z,2.55
2019-02-19T02:48:20.582Z,2.60
2019-02-19T02:50:52.148Z,2.67
2019-02-19T02:53:23.738Z,2.70
2019-02-19T02:55:55.450Z,2.73
2019-02-19T02:58:27.078Z,2.75
2019-02-19T03:00:58.639Z,2.78
2019-02-19T03:03:30.045Z,2.80
2019-02-19T03:06:14.415Z,2.83
2019-02-19T03:08:45.847Z,2.74
2019-02-19T03:11:17.483Z,2.78
2019-02-19T03:13:49.054Z,2.59
2019-02-19T03:16:20.802Z,2.47
2019-02-19T03:18:52.224Z,2.44
2019-02-19T03:21:23.760Z,2.33
2019-02-19T03:23:55.365Z,2.35
2019-02-19T03:26:26.859Z,2.22
2019-02-19T03:28:58.349Z,2.11
2019-02-19T03:31:29.577Z,1.97
2019-02-19T03:34:00.801Z,1.88
2019-02-19T03:36:32.057Z,1.94
2019-02-19T03:39:04.670Z,1.83
2019-02-19T03:41:37.005Z,1.88
2019-02-19T03:44:08.523Z,1.81
2019-02-19T03:46:40.277Z,1.81
2019-02-19T03:49:11.814Z,1.76
2019-02-19T03:51:43.458Z,1.74
2019-02-19T03:54:14.900Z,1.84
2019-02-19T03:56:46.568Z,1.93
2019-02-19T03:59:18.137Z,1.96
2019-02-19T04:01:49.644Z,2.01
2019-02-19T04:04:21.018Z,1.98
2019-02-19T04:06:52.545Z,1.90
2019-02-19T04:09:23.868Z,1.95
2019-02-19T04:11:55.209Z,1.80
2019-02-19T04:14:26.412Z,1.80
2019-02-19T04:16:58.885Z,1.64
2019-02-19T04:19:30.488Z,1.52
2019-02-19T04:22:01.690Z,1.61
2019-02-19T04:24:33.357Z,1.59
2019-02-19T04:27:04.967Z,1.56
2019-02-19T04:29:36.354Z,1.59
2019-02-19T04:32:07.973Z,1.61
2019-02-19T04:34:39.591Z,1.69
2019-02-19T04:37:11.252Z,1.77
2019-02-19T04:39:42.783Z,1.82
2019-02-19T04:42:14.435Z,1.89
2019-02-19T04:44:45.932Z,1.93
2019-02-19T04:47:17.599Z,1.95
2019-02-19T04:49:49.251Z,2.00
2019-02-19T04:52:20.812Z,1.97
2019-02-19T04:54:52.410Z,1.89
2019-02-19T04:57:24.012Z,1.92
2019-02-19T04:59:55.375Z,1.87
2019-02-19T05:02:27.018Z,1.82
2019-02-19T05:04:58.522Z,1.73
2019-02-19T05:07:29.942Z,1.73
2019-02-19T05:10:01.357Z,1.67
2019-02-19T05:12:32.876Z,1.61
2019-02-19T05:15:04.644Z,1.62
2019-02-19T05:17:36.346Z,1.54
2019-02-19T05:20:08.352Z,1.52
2019-02-19T05:22:39.680Z,1.49
2019-02-19T05:25:11.498Z,1.39
2019-02-19T05:27:42.998Z,1.33
2019-02-19T05:30:14.814Z,1.28
2019-02-19T05:32:46.424Z,1.21
2019-02-19T05:35:18.028Z,1.27
2019-02-19T05:37:49.579Z,1.27
2019-02-19T05:40:21.373Z,1.31
2019-02-19T05:42:52.645Z,1.25
2019-02-19T05:45:24.051Z,1.25
2019-02-19T05:47:55.584Z,1.30
2019-02-19T05:50:27.082Z,1.20
2019-02-19T05:52:58.831Z,0.91
2019-02-19T05:55:30.574Z,0.90
2019-02-19T05:58:02.007Z,0.93
2019-02-19T06:00:33.660Z,1.13
2019-02-19T06:03:05.340Z,1.33
2019-02-19T06:05:37.139Z,1.55
2019-02-19T06:08:08.573Z,2.01
2019-02-19T06:10:40.183Z,2.41
2019-02-19T06:13:11.727Z,2.82
2019-02-19T06:15:42.939Z,2.92
2019-02-19T06:18:14.905Z,3.47
2019-02-19T06:20:47.482Z,3.89
2019-02-19T06:23:19.072Z,4.38
2019-02-19T06:25:50.634Z,4.71
2019-02-19T06:28:22.263Z,5.01
2019-02-19T06:30:53.634Z,5.29
2019-02-19T06:33:25.280Z,5.63
2019-02-19T06:35:56.689Z,5.84
2019-02-19T06:38:28.077Z,5.89
2019-02-19T06:40:59.511Z,6.10
2019-02-19T06:43:31.014Z,6.17
2019-02-19T06:46:02.706Z,6.44
2019-02-19T06:48:34.173Z,6.32
2019-02-19T06:51:05.879Z,6.51
2019-02-19T06:53:37.436Z,6.62
2019-02-19T06:56:09.367Z,6.74
2019-02-19T06:58:40.636Z,6.95
2019-02-19T07:01:12.270Z,6.56
2019-02-19T07:04:01.540Z,6.42
2019-02-19T07:06:32.883Z,6.17
2019-02-19T07:09:05.015Z,5.86
2019-02-19T07:11:36.651Z,5.75
2019-02-19T07:14:08.197Z,5.39
2019-02-19T07:16:39.403Z,5.21
2019-02-19T07:19:10.672Z,5.55
2019-02-19T07:21:42.131Z,5.36
2019-02-19T07:24:13.752Z,5.36
2019-02-19T07:26:45.534Z,5.60
2019-02-19T07:29:16.948Z,5.35
2019-02-19T07:31:48.343Z,5.32
2019-02-19T07:34:19.970Z,5.41
2019-02-19T07:36:51.504Z,5.59
2019-02-19T07:39:22.887Z,5.55
2019-02-19T07:41:54.097Z,5.71
2019-02-19T07:44:25.467Z,6.03
2019-02-19T07:46:56.718Z,6.00
2019-02-19T07:49:28.464Z,6.06
2019-02-19T07:52:00.054Z,6.20
2019-02-19T07:54:31.349Z,6.43
2019-02-19T07:57:02.569Z,6.52
2019-02-19T07:59:34.178Z,6.77
2019-02-19T08:02:05.580Z,7.01
2019-02-19T08:04:36.822Z,7.31
2019-02-19T08:07:08.207Z,7.54
2019-02-19T08:09:39.670Z,7.66
2019-02-19T08:12:11.042Z,7.81
2019-02-19T08:14:42.306Z,7.82
2019-02-19T08:17:14.184Z,8.20
2019-02-19T08:19:45.605Z,8.16
2019-02-19T08:22:17.587Z,8.49
2019-02-19T08:24:49.119Z,8.53
2019-02-19T08:27:20.525Z,8.81
2019-02-19T08:29:52.311Z,8.83
2019-02-19T08:32:23.835Z,8.82
2019-02-19T08:34:55.315Z,9.03
2019-02-19T08:37:26.558Z,9.14
2019-02-19T08:39:58.150Z,9.34
2019-02-19T08:42:29.640Z,9.73
2019-02-19T08:45:01.134Z,9.75
2019-02-19T08:47:32.563Z,9.96
2019-02-19T08:50:04.139Z,9.89
2019-02-19T08:52:35.820Z,9.86
2019-02-19T08:55:07.503Z,9.92
2019-02-19T08:57:39.174Z,10.06
2019-02-19T09:00:11.438Z,10.42
2019-02-19T09:02:42.849Z,10.77
2019-02-19T09:05:14.176Z,10.63
2019-02-19T09:07:45.590Z,10.41
2019-02-19T09:10:16.920Z,10.54
2019-02-19T09:12:48.187Z,10.71
2019-02-19T09:15:19.716Z,10.90
2019-02-19T09:17:52.189Z,10.90
2019-02-19T09:20:23.711Z,11.01
2019-02-19T09:22:54.918Z,11.29
2019-02-19T09:25:26.210Z,11.72
2019-02-19T09:27:57.447Z,11.97
2019-02-19T09:30:28.869Z,11.77
2019-02-19T09:33:00.238Z,12.03
2019-02-19T09:35:31.656Z,12.19
2019-02-19T09:38:02.903Z,12.65
2019-02-19T09:40:34.033Z,12.95
2019-02-19T09:43:05.513Z,13.07
2019-02-19T09:45:36.834Z,12.73
2019-02-19T09:48:08.102Z,13.08
2019-02-19T09:50:39.414Z,13.08
2019-02-19T09:53:10.781Z,13.17
2019-02-19T09:55:43.794Z,13.24
2019-02-19T09:58:15.304Z,13.21
2019-02-19T10:00:46.747Z,13.31
2019-02-19T10:03:18.042Z,13.79
2019-02-19T10:05:49.378Z,13.79
2019-02-19T10:08:20.535Z,14.03
2019-02-19T10:10:51.981Z,14.04
2019-02-19T10:13:25.128Z,13.65
2019-02-19T10:15:56.651Z,13.80
2019-02-19T10:18:27.761Z,13.75
2019-02-19T10:20:59.796Z,13.95
2019-02-19T10:23:31.201Z,13.86
2019-02-19T10:26:04.007Z,13.96
2019-02-19T10:28:35.213Z,14.23
2019-02-19T10:31:06.501Z,14.46
2019-02-19T10:33:37.612Z,14.46
2019-02-19T10:36:08.752Z,14.60
2019-02-19T10:38:39.739Z,14.64
2019-02-19T10:41:10.854Z,14.66
2019-02-19T10:43:41.974Z,14.52
2019-02-19T10:46:13.185Z,14.52
2019-02-19T10:48:44.351Z,14.65
2019-02-19T10:51:15.564Z,15.09
2019-02-19T10:53:46.719Z,15.09
2019-02-19T10:56:17.897Z,15.13
2019-02-19T10:58:49.062Z,15.31
2019-02-19T11:01:20.118Z,15.57
2019-02-19T11:03:52.294Z,15.70
2019-02-19T11:06:23.427Z,15.84
2019-02-19T11:08:54.555Z,15.83
2019-02-19T11:11:25.940Z,15.68
2019-02-19T11:13:57.358Z,16.05
2019-02-19T11:16:28.388Z,15.86
2019-02-19T11:18:59.476Z,15.95
2019-02-19T11:21:30.520Z,16.04
2019-02-19T11:24:01.821Z,16.49
2019-02-19T11:26:32.755Z,16.77
2019-02-19T11:29:03.789Z,16.66
2019-02-19T11:31:34.879Z,16.51
2019-02-19T11:34:06.047Z,16.65
2019-02-19T11:36:37.512Z,16.68
2019-02-19T11:39:10.015Z,17.12
2019-02-19T11:41:41.308Z,16.80
2019-02-19T11:44:12.503Z,17.03
2019-02-19T11:46:43.977Z,17.17
2019-02-19T11:49:15.031Z,16.71
2019-02-19T11:51:46.245Z,16.57
2019-02-19T11:54:17.393Z,16.64
2019-02-19T11:56:48.835Z,16.64
2019-02-19T11:59:20.257Z,16.56
2019-02-19T12:01:51.774Z,17.09
2019-02-19T12:04:23.047Z,16.91
2019-02-19T12:06:54.135Z,17.13
2019-02-19T12:09:25.221Z,17.24
2019-02-19T12:11:56.210Z,17.07
2019-02-19T12:14:27.246Z,17.07
2019-02-19T12:16:58.332Z,18.04
2019-02-19T12:19:29.692Z,17.86
2019-02-19T12:22:00.694Z,18.36
2019-02-19T12:24:31.715Z,18.12
2019-02-19T12:27:02.942Z,18.42
2019-02-19T12:29:34.265Z,18.64
2019-02-19T12:32:05.196Z,19.13
2019-02-19T12:34:36.565Z,19.18
2019-02-19T12:37:07.798Z,19.30
2019-02-19T12:39:39.073Z,18.17
2019-02-19T12:42:10.431Z,17.37
2019-02-19T12:44:41.723Z,17.16
2019-02-19T12:47:13.110Z,17.08
2019-02-19T12:49:44.424Z,17.11
2019-02-19T12:52:15.656Z,16.59
2019-02-19T12:54:46.947Z,16.59
2019-02-19T12:57:18.405Z,16.75
2019-02-19T12:59:56.383Z,17.06
2019-02-19T13:02:22.430Z,17.09
2019-02-19T13:04:53.680Z,16.80
2019-02-19T13:07:24.933Z,16.71
2019-02-19T13:09:56.254Z,16.40
2019-02-19T13:12:27.856Z,16.40
2019-02-19T13:14:58.868Z,16.32
2019-02-19T13:17:29.899Z,16.22
2019-02-19T13:20:00.850Z,16.28
2019-02-19T13:22:33.015Z,16.54
2019-02-19T13:25:04.237Z,16.54
2019-02-19T13:27:35.401Z,16.66
2019-02-19T13:30:08.054Z,16.66
2019-02-19T13:32:39.299Z,16.80
2019-02-19T13:35:11.143Z,16.80
2019-02-19T13:37:43.261Z,16.82
2019-02-19T13:40:14.798Z,16.82
2019-02-19T13:42:46.074Z,16.91
2019-02-19T13:45:17.569Z,16.89
2019-02-19T13:47:49.095Z,17.02
2019-02-19T13:50:21.012Z,16.96
2019-02-19T13:53:09.829Z,17.12
2019-02-19T13:55:44.045Z,16.93
2019-02-19T13:58:15.589Z,16.80
2019-02-19T14:00:47.600Z,16.99
2019-02-19T14:03:19.166Z,17.09
2019-02-19T14:05:50.310Z,17.21
2019-02-19T14:08:21.567Z,17.11
2019-02-19T14:10:52.900Z,17.24
2019-02-19T14:13:24.292Z,17.28
2019-02-19T14:16:15.353Z,17.15
2019-02-19T14:19:05.278Z,17.11
2019-02-19T14:21:56.621Z,17.11
2019-02-19T14:24:55.631Z,16.89
2019-02-19T14:27:44.482Z,16.88
2019-02-19T14:30:37.320Z,16.89
2019-02-19T14:33:48.842Z,16.89
2019-02-19T14:36:52.938Z,16.82
2019-02-19T14:39:48.960Z,16.73
2019-02-19T14:42:44.875Z,16.73
2019-02-19T14:45:30.878Z,16.70
2019-02-19T14:48:19.418Z,16.68
2019-02-19T14:51:15.955Z,16.79
2019-02-19T14:54:12.226Z,16.79
2019-02-19T14:57:08.114Z,16.71
2019-02-19T15:00:00.977Z,16.73
2019-02-19T15:03:00.165Z,16.66
2019-02-19T15:05:48.823Z,16.56
2019-02-19T15:08:42.082Z,16.54
2019-02-19T15:11:34.734Z,16.55
2019-02-19T15:14:27.897Z,16.47
2019-02-19T15:17:20.671Z,16.47
2019-02-19T15:20:19.448Z,16.40
2019-02-19T15:23:18.741Z,16.37
2019-02-19T15:26:13.019Z,16.26
2019-02-19T15:29:02.604Z,16.30
2019-02-19T15:31:45.573Z,16.22
2019-02-19T15:34:44.628Z,16.17
2019-02-19T15:37:33.277Z,16.18
2019-02-19T15:40:26.073Z,16.08
2019-02-19T15:43:25.438Z,16.07
2019-02-19T15:46:21.449Z,16.07
2019-02-19T15:49:14.516Z,16.03
2019-02-19T15:52:07.049Z,15.98
2019-02-19T15:54:47.808Z,15.94
2019-02-19T15:57:31.708Z,15.83
2019-02-19T16:00:20.545Z,15.78
2019-02-19T16:03:00.858Z,15.76
2019-02-19T16:05:51.151Z,15.70
2019-02-19T16:08:41.366Z,15.68
2019-02-19T16:11:34.520Z,15.59
2019-02-19T16:14:24.892Z,15.40
2019-02-19T16:17:08.366Z,15.34
2019-02-19T16:19:58.659Z,14.98
2019-02-19T16:22:51.659Z,14.83
2019-02-19T16:25:40.264Z,14.65
2019-02-19T16:28:45.293Z,14.57
2019-02-19T16:31:53.580Z,14.57
2019-02-19T16:34:47.479Z,14.40
2019-02-19T16:37:43.402Z,14.30
2019-02-19T16:40:21.022Z,14.19
2019-02-19T16:43:11.091Z,14.15
2019-02-19T16:45:59.824Z,14.14
2019-02-19T16:48:39.822Z,14.14
2019-02-19T16:51:21.191Z,14.07
2019-02-19T16:54:23.654Z,14.08
2019-02-19T16:57:07.299Z,13.76
2019-02-19T16:59:49.438Z,13.77
2019-02-19T17:02:30.238Z,13.71
2019-02-19T17:05:19.940Z,13.65
2019-02-19T17:07:57.920Z,13.55
2019-02-19T17:10:44.848Z,13.44
2019-02-19T17:13:37.809Z,13.37
2019-02-19T17:16:27.579Z,13.44
2019-02-19T17:19:20.794Z,13.45
2019-02-19T17:22:06.949Z,13.21
2019-02-19T17:25:02.765Z,13.19
2019-02-19T17:27:47.219Z,13.09
2019-02-19T17:30:37.330Z,13.01
2019-02-19T17:33:33.570Z,12.97
2019-02-19T17:36:22.758Z,12.59
2019-02-19T17:39:12.927Z,12.47
2019-02-19T17:41:49.481Z,12.42
2019-02-19T17:44:33.518Z,12.25
2019-02-19T17:47:26.672Z,12.06
2019-02-19T17:50:16.862Z,12.08
2019-02-19T17:53:05.541Z,11.78
2019-02-19T17:56:01.594Z,11.86
2019-02-19T17:58:47.003Z,11.90
2019-02-19T18:01:42.946Z,11.92
2019-02-19T18:04:21.923Z,11.73
2019-02-19T18:07:10.346Z,11.61
2019-02-19T18:10:10.678Z,11.55
2019-02-19T18:12:59.538Z,11.54
2019-02-19T18:16:01.887Z,11.52
2019-02-19T18:18:50.052Z,11.45
2019-02-19T18:21:21.340Z,11.46
2019-02-19T18:23:52.809Z,11.52
2019-02-19T18:26:24.039Z,11.40
2019-02-19T18:28:55.254Z,11.46
2019-02-19T18:31:26.246Z,11.38
2019-02-19T18:33:57.972Z,11.40
2019-02-19T18:36:29.588Z,11.33
2019-02-19T18:39:00.904Z,11.36
2019-02-19T18:41:33.949Z,11.33
2019-02-19T18:44:05.699Z,11.39
2019-02-19T18:46:37.301Z,11.20
2019-02-19T18:49:08.999Z,11.22
2019-02-19T18:51:40.250Z,11.07
2019-02-19T18:54:12.818Z,11.01
2019-02-19T18:56:44.512Z,10.95
2019-02-19T18:59:16.066Z,11.05
2019-02-19T19:01:47.532Z,11.01
2019-02-19T19:04:18.908Z,11.05
2019-02-19T19:06:50.351Z,11.05
2019-02-19T19:09:21.567Z,10.93
2019-02-19T19:11:53.190Z,10.86
2019-02-19T19:14:24.608Z,10.86
2019-02-19T19:16:55.966Z,10.76
2019-02-19T19:19:27.179Z,10.83
2019-02-19T19:21:58.539Z,10.84
2019-02-19T19:24:29.911Z,10.63
2019-02-19T19:27:01.208Z,10.54
2019-02-19T19:29:32.422Z,10.46
2019-02-19T19:32:03.783Z,10.43
2019-02-19T19:34:35.142Z,10.40
2019-02-19T19:37:06.803Z,10.26
2019-02-19T19:39:38.288Z,10.26
2019-02-19T19:42:09.724Z,10.11
2019-02-19T19:44:41.077Z,10.10
2019-02-19T19:47:12.433Z,10.17
2019-02-19T19:49:43.885Z,10.01
2019-02-19T19:52:15.292Z,9.97
2019-02-19T19:54:46.679Z,10.02
2019-02-19T19:57:18.211Z,9.86
2019-02-19T19:59:49.532Z,9.93
2019-02-19T20:02:20.809Z,9.86
2019-02-19T20:04:52.377Z,9.71
2019-02-19T20:07:23.871Z,9.73
2019-02-19T20:09:55.612Z,9.64
2019-02-19T20:12:27.304Z,9.73
2019-02-19T20:14:58.818Z,9.73
2019-02-19T20:17:30.421Z,9.66
2019-02-19T20:20:01.868Z,9.54
2019-02-19T20:22:34.228Z,9.44
2019-02-19T20:25:06.161Z,9.33
2019-02-19T20:27:37.918Z,9.20
2019-02-19T20:30:10.331Z,9.17
2019-02-19T20:32:42.513Z,9.05
2019-02-19T20:35:14.088Z,8.93
2019-02-19T20:37:53.653Z,8.73
2019-02-19T20:40:19.266Z,8.80
2019-02-19T20:42:50.840Z,8.71
2019-02-19T20:45:22.825Z,8.70
2019-02-19T20:47:54.306Z,8.71
2019-02-19T20:50:26.054Z,8.69
2019-02-19T20:52:57.693Z,8.71
2019-02-19T20:55:36.777Z,8.48
2019-02-19T20:58:03.939Z,8.37
2019-02-19T21:00:35.654Z,8.29
2019-02-19T21:03:07.869Z,8.19
2019-02-19T21:05:39.766Z,8.10
2019-02-19T21:08:11.418Z,7.96
2019-02-19T21:10:43.181Z,7.84
2019-02-19T21:13:14.723Z,7.83
2019-02-19T21:15:46.250Z,7.73
2019-02-19T21:18:18.084Z,7.73
2019-02-19T21:20:49.804Z,7.71
2019-02-19T21:23:21.816Z,7.71
2019-02-19T21:25:53.691Z,7.73
2019-02-19T21:28:25.671Z,7.68
2019-02-19T21:30:57.346Z,7.52
2019-02-19T21:33:28.996Z,7.57
2019-02-19T21:36:00.591Z,7.51
2019-02-19T21:38:32.230Z,7.55
2019-02-19T21:41:03.562Z,7.52
2019-02-19T21:43:35.299Z,7.49
2019-02-19T21:46:07.593Z,7.47
2019-02-19T21:48:39.540Z,7.46
2019-02-19T21:51:11.399Z,7.50
2019-02-19T21:53:43.131Z,7.44
2019-02-19T21:56:15.520Z,7.22
2019-02-19T21:58:47.221Z,6.95
2019-02-19T22:01:18.725Z,6.92
2019-02-19T22:03:50.025Z,6.74
2019-02-19T22:06:22.685Z,6.64
2019-02-19T22:08:54.352Z,6.75
2019-02-19T22:11:25.967Z,6.75
2019-02-19T22:13:57.560Z,6.77
2019-02-19T22:16:29.291Z,6.81
2019-02-19T22:19:01.130Z,6.86
2019-02-19T22:21:41.772Z,6.84
2019-02-19T22:24:13.337Z,6.81
2019-02-19T22:26:44.809Z,6.74
2019-02-19T22:29:16.539Z,6.54
2019-02-19T22:31:48.188Z,6.54
2019-02-19T22:34:19.858Z,6.56
2019-02-19T22:36:51.629Z,6.62
2019-02-19T22:39:23.288Z,6.65
2019-02-19T22:41:54.843Z,6.54
2019-02-19T22:44:26.417Z,6.54
2019-02-19T22:46:57.942Z,6.50
2019-02-19T22:49:29.257Z,6.48
2019-02-19T22:52:00.625Z,6.46
2019-02-19T22:54:42.958Z,6.44
2019-02-19T22:57:14.243Z,6.33
2019-02-19T22:59:45.919Z,6.02
2019-02-19T23:02:29.254Z,5.91
2019-02-19T23:05:01.000Z,5.83
2019-02-19T23:07:33.831Z,5.62
2019-02-19T23:10:06.626Z,5.45
2019-02-19T23:12:38.125Z,5.27
2019-02-19T23:15:09.754Z,5.31
2019-02-19T23:17:41.421Z,5.16
2019-02-19T23:20:13.116Z,5.18
2019-02-19T23:22:44.830Z,5.15
2019-02-19T23:25:16.464Z,4.98
2019-02-19T23:27:48.032Z,4.94
2019-02-19T23:30:19.780Z,4.91
2019-02-19T23:32:51.580Z,4.95
2019-02-19T23:35:32.488Z,4.97
2019-02-19T23:38:04.186Z,4.99
2019-02-19T23:40:36.271Z,4.93
2019-02-19T23:43:07.944Z,4.98
2019-02-19T23:45:39.526Z,4.91
2019-02-19T23:48:11.054Z,4.86
2019-02-19T23:50:42.665Z,4.79
2019-02-19T23:53:14.409Z,4.77
2019-02-19T23:55:46.052Z,4.62
2019-02-19T23:58:17.666Z,4.71
